EW4543 Weather Reports


Display with metric or nautical units.
time (UTC)temp
F
wind
direction
speed
MPH
gust
MPH
rain 1hr
in
rain 24hr
in
rain mn
in
humidity
%
barometer
mb
20220816071547 65 300 0.0 0.0 0.00 0.11 0.00 38 1005.7
20220816070023 65 300 0.0 0.0 0.00 0.11 0.00 37 1005.8
20220816064533 66 300 0.0 0.0 0.00 0.11 0.11 36 1005.8
20220816063026 66 300 0.0 0.0 0.00 0.11 0.11 35 1005.9
20220816061523 67 300 0.0 0.0 0.00 0.11 0.11 34 1005.9
20220816060030 68 300 0.0 0.0 0.00 0.11 0.11 34 1006.0
20220816054536 68 300 0.0 0.0 0.01 0.11 0.11 33 1005.9
20220816053036 69 300 0.0 0.0 0.01 0.11 0.11 32 1005.9
20220816051520 70 300 0.0 0.0 0.01 0.11 0.11 31 1005.9
20220816050021 71 300 0.0 0.0 0.01 0.11 0.11 30 1005.8
20220816044519 72 299 0.0 0.0 0.00 0.10 0.10 29 1005.8
20220816043018 73 299 0.0 0.0 0.01 0.10 0.10 26 1005.8
20220816041535 74 299 0.0 0.0 0.01 0.10 0.10 25 1005.6
20220816040029 75 299 0.0 0.0 0.01 0.10 0.10 24 1005.4
20220816034518 76 299 0.0 0.0 0.01 0.10 0.10 23 1005.4
20220816033016 78 299 0.0 0.0 0.01 0.09 0.09 22 1005.1
20220816031524 80 299 0.0 0.0 0.01 0.09 0.09 21 1005.1
20220816030016 82 299 0.0 0.0 0.01 0.09 0.09 20 1005.0
20220816024515 83 299 0.0 1.0 0.01 0.10 0.09 20 1004.8
20220816023024 86 295 0.0 1.0 0.00 0.09 0.08 19 1004.7
20220816021518 89 285 0.0 0.0 0.00 0.09 0.08 16 1004.6
20220816020013 91 285 0.0 1.0 0.00 0.09 0.08 17 1004.6
20220816014520 94 285 0.0 2.0 0.00 0.09 0.08 14 1004.6
20220816013012 94 300 0.0 2.0 0.00 0.09 0.08 13 1004.7
20220816011517 94 200 0.0 2.0 0.00 0.09 0.08 13 1004.7
20220816010011 94 302 0.0 3.0 0.00 0.09 0.08 13 1004.8
20220816004511 94 252 1.0 4.0 0.00 0.09 0.08 13 1004.7
20220816003010 94 299 0.0 4.0 0.00 0.09 0.08 13 1004.8
20220816001519 95 200 1.0 4.0 0.00 0.09 0.08 12 1004.8
20220816000011 94 335 0.0 4.0 0.00 0.09 0.08 13 1004.9
20220815234506 95 299 0.0 4.0 0.00 0.09 0.08 13 1004.9
20220815233019 95 297 0.0 5.0 0.01 0.09 0.08 12 1005.0
20220815231509 95 304 2.0 5.0 0.01 0.09 0.08 12 1005.2
20220815230002 95 347 1.0 5.0 0.01 0.09 0.08 12 1005.4
20220815224502 95 303 0.0 4.0 0.01 0.09 0.08 12 1005.3
20220815223102 97 28 3.0 6.0 0.00 0.08 0.07 12 1005.4
20220815221613 98 274 1.0 6.0 0.00 0.08 0.07 11 1005.5
20220815220058 97 263 1.0 4.0 0.00 0.08 0.07 12 1005.7
20220815214607 98 269 1.0 5.0 0.00 0.08 0.07 11 1005.7
20220815213116 100 301 1.0 4.0 0.00 0.08 0.07 11 1005.8
20220815211554 98 227 0.0 4.0 0.00 0.08 0.07 13 1006.0
20220815210058 97 235 2.0 5.0 0.00 0.08 0.07 13 1006.1
20220815204551 98 150 0.0 5.0 0.00 0.08 0.07 13 1006.2
20220815203117 95 119 1.0 5.0 0.00 0.08 0.07 13 1006.2
20220815201600 95 295 1.0 6.0 0.00 0.08 0.07 13 1006.3
20220815200042 97 224 1.0 4.0 0.00 0.08 0.07 13 1006.5
20220815194538 97 58 1.0 3.0 0.00 0.09 0.07 13 1006.6
20220815193034 95 255 0.0 7.0 0.00 0.09 0.07 14 1006.7
20220815191532 95 241 0.0 4.0 0.01 0.09 0.07 13 1006.8
20220815190102 93 174 1.0 3.0 0.01 0.09 0.07 13 1006.9
20220815184634 94 293 2.0 4.0 0.02 0.10 0.07 13 1007.0
20220815183103 95 263 1.0 2.0 0.04 0.10 0.07 15 1007.0
20220815181550 95 258 0.0 2.0 0.04 0.09 0.06 14 1007.0
20220815180046 95 20 1.0 3.0 0.04 0.09 0.06 13 1007.0
20220815174545 95 287 0.0 4.0 0.03 0.08 0.04 16 1007.0
20220815173025 93 165 0.0 1.0 0.02 0.07 0.03 16 1007.0
20220815171517 91 128 0.0 2.0 0.01 0.06 0.02 18 1007.1
20220815170014 89 124 0.0 1.0 0.01 0.06 0.02 17 1007.0
20220815164529 87 116 0.0 2.0 0.00 0.06 0.01 23 1007.0
20220815163006 84 62 0.0 1.0 0.00 0.06 0.01 28 1007.0
20220815161504 80 62 0.0 0.0 0.00 0.06 0.01 32 1007.0
20220815160101 76 62 0.0 1.0 0.00 0.06 0.01 36 1007.0
20220815154559 71 60 0.0 1.0 0.00 0.06 0.01 39 1007.1
20220815153057 65 59 0.0 1.0 0.00 0.06 0.01 43 1007.0
20220815151544 62 54 0.0 1.0 0.00 0.06 0.01 45 1007.0
20220815150050 60 316 0.0 0.0 0.00 0.06 0.01 46 1007.0
20220815144601 58 316 0.0 0.0 0.00 0.06 0.01 47 1007.0
20220815143041 56 316 0.0 0.0 0.00 0.06 0.01 47 1007.0
20220815141605 55 316 0.0 0.0 0.00 0.06 0.01 49 1007.0
20220815140055 54 316 0.0 0.0 0.00 0.06 0.01 53 1007.0
20220815134558 54 316 0.0 0.0 0.00 0.06 0.01 52 1007.0
20220815133039 54 316 0.0 0.0 0.00 0.06 0.01 55 1007.0
20220815131550 54 316 0.0 0.0 0.00 0.06 0.01 52 1007.0
20220815130036 54 316 0.0 0.0 0.00 0.06 0.01 50 1007.0
20220815124537 55 316 0.0 0.0 0.00 0.06 0.01 48 1006.9
20220815123033 55 316 0.0 0.0 0.00 0.06 0.01 48 1007.1
20220815121538 55 316 0.0 0.0 0.00 0.06 0.01 48 1007.1
20220815120028 55 316 0.0 0.0 0.00 0.06 0.01 48 1007.0
20220815114534 55 316 0.0 0.0 0.00 0.06 0.01 48 1007.1
20220815113024 55 316 0.0 0.0 0.00 0.06 0.01 49 1007.2
20220815111523 55 316 0.0 0.0 0.00 0.06 0.01 48 1007.3
20220815110032 56 316 0.0 0.0 0.00 0.06 0.01 47 1007.3
20220815104519 56 316 0.0 0.0 0.00 0.06 0.01 47 1007.3
20220815103016 57 316 0.0 0.0 0.00 0.06 0.01 46 1007.3
20220815101529 57 316 0.0 0.0 0.00 0.06 0.01 45 1007.4
20220815100013 57 316 0.0 0.0 0.00 0.06 0.01 46 1007.4
20220815094523 58 316 0.0 0.0 0.00 0.06 0.01 45 1007.5
20220815093014 59 316 0.0 0.0 0.00 0.06 0.01 44 1007.5
20220815091510 59 316 0.0 0.0 0.00 0.06 0.01 44 1007.5
20220815090004 59 316 0.0 0.0 0.00 0.06 0.01 43 1007.6
20220815084504 60 316 0.0 0.0 0.00 0.06 0.01 42 1007.5
20220815083101 60 316 0.0 0.0 0.00 0.06 0.01 42 1007.7
20220815081613 60 316 0.0 0.0 0.01 0.06 0.01 42 1007.9
20220815080134 61 316 0.0 0.0 0.01 0.06 0.01 40 1008.0
20220815074552 62 316 0.0 0.0 0.01 0.07 0.01 39 1008.1
20220815073056 61 316 0.0 0.0 0.01 0.07 0.01 41 1008.1